sensor_id;sensor_type;location;lat;lon;timestamp;P1;durP1;ratioP1;P2;durP2;ratioP2
57319;SDS011;43158;51.026;18.190;2022-07-29T00:01:32;5.50;;;2.50;;
57319;SDS011;43158;51.026;18.190;2022-07-29T00:04:17;6.00;;;2.80;;
57319;SDS011;43158;51.026;18.190;2022-07-29T00:07:03;4.60;;;2.50;;
57319;SDS011;43158;51.026;18.190;2022-07-29T00:09:48;6.50;;;2.80;;
57319;SDS011;43158;51.026;18.190;2022-07-29T00:12:33;3.40;;;2.80;;
57319;SDS011;43158;51.026;18.190;2022-07-29T00:15:18;6.40;;;2.70;;
57319;SDS011;43158;51.026;18.190;2022-07-29T00:18:03;6.00;;;3.40;;
57319;SDS011;43158;51.026;18.190;2022-07-29T00:20:48;7.90;;;3.60;;
57319;SDS011;43158;51.026;18.190;2022-07-29T00:23:32;4.90;;;2.60;;
57319;SDS011;43158;51.026;18.190;2022-07-29T00:26:18;7.70;;;3.10;;
57319;SDS011;43158;51.026;18.190;2022-07-29T00:29:03;4.60;;;3.00;;
57319;SDS011;43158;51.026;18.190;2022-07-29T00:31:48;5.30;;;2.70;;
57319;SDS011;43158;51.026;18.190;2022-07-29T00:34:33;8.20;;;3.40;;
57319;SDS011;43158;51.026;18.190;2022-07-29T00:37:37;7.20;;;3.50;;
57319;SDS011;43158;51.026;18.190;2022-07-29T00:40:21;5.80;;;3.10;;
57319;SDS011;43158;51.026;18.190;2022-07-29T00:43:07;4.80;;;3.10;;
57319;SDS011;43158;51.026;18.190;2022-07-29T00:45:52;4.40;;;2.70;;
57319;SDS011;43158;51.026;18.190;2022-07-29T00:48:37;5.90;;;3.50;;
57319;SDS011;43158;51.026;18.190;2022-07-29T00:51:22;6.40;;;3.60;;
57319;SDS011;43158;51.026;18.190;2022-07-29T00:54:07;5.30;;;3.20;;
57319;SDS011;43158;51.026;18.190;2022-07-29T00:56:52;7.20;;;3.50;;
57319;SDS011;43158;51.026;18.190;2022-07-29T00:59:37;8.10;;;3.30;;
57319;SDS011;43158;51.026;18.190;2022-07-29T01:02:22;7.30;;;2.60;;
57319;SDS011;43158;51.026;18.190;2022-07-29T01:05:07;8.70;;;3.30;;
57319;SDS011;43158;51.026;18.190;2022-07-29T01:07:52;4.90;;;3.30;;
57319;SDS011;43158;51.026;18.190;2022-07-29T01:10:38;4.30;;;3.70;;
57319;SDS011;43158;51.026;18.190;2022-07-29T01:13:24;3.30;;;2.40;;
57319;SDS011;43158;51.026;18.190;2022-07-29T01:16:11;5.70;;;2.90;;
57319;SDS011;43158;51.026;18.190;2022-07-29T01:19:12;4.80;;;2.80;;
57319;SDS011;43158;51.026;18.190;2022-07-29T01:22:14;6.30;;;3.00;;
57319;SDS011;43158;51.026;18.190;2022-07-29T01:31:20;6.30;;;3.20;;
57319;SDS011;43158;51.026;18.190;2022-07-29T01:34:11;4.70;;;2.80;;
57319;SDS011;43158;51.026;18.190;2022-07-29T01:37:15;8.40;;;3.20;;
57319;SDS011;43158;51.026;18.190;2022-07-29T01:40:04;5.90;;;2.60;;
57319;SDS011;43158;51.026;18.190;2022-07-29T01:43:11;10.20;;;3.40;;
57319;SDS011;43158;51.026;18.190;2022-07-29T01:46:03;3.40;;;2.70;;
57319;SDS011;43158;51.026;18.190;2022-07-29T01:48:53;5.70;;;3.70;;
57319;SDS011;43158;51.026;18.190;2022-07-29T01:54:47;4.00;;;3.00;;
57319;SDS011;43158;51.026;18.190;2022-07-29T01:57:35;9.90;;;3.00;;
57319;SDS011;43158;51.026;18.190;2022-07-29T02:00:21;9.60;;;3.50;;
57319;SDS011;43158;51.026;18.190;2022-07-29T02:03:09;10.30;;;3.40;;
57319;SDS011;43158;51.026;18.190;2022-07-29T02:05:55;5.80;;;3.10;;
57319;SDS011;43158;51.026;18.190;2022-07-29T02:08:41;4.40;;;3.10;;
57319;SDS011;43158;51.026;18.190;2022-07-29T02:11:26;8.40;;;3.80;;
57319;SDS011;43158;51.026;18.190;2022-07-29T02:14:10;4.90;;;3.10;;
57319;SDS011;43158;51.026;18.190;2022-07-29T02:16:57;5.60;;;3.30;;
57319;SDS011;43158;51.026;18.190;2022-07-29T02:19:42;4.40;;;2.90;;
57319;SDS011;43158;51.026;18.190;2022-07-29T02:22:28;5.00;;;2.70;;
57319;SDS011;43158;51.026;18.190;2022-07-29T02:25:14;5.10;;;3.00;;
57319;SDS011;43158;51.026;18.190;2022-07-29T02:28:00;5.30;;;3.20;;
57319;SDS011;43158;51.026;18.190;2022-07-29T02:30:47;6.70;;;3.20;;
57319;SDS011;43158;51.026;18.190;2022-07-29T02:33:33;6.10;;;3.50;;
57319;SDS011;43158;51.026;18.190;2022-07-29T02:36:18;6.60;;;3.30;;
57319;SDS011;43158;51.026;18.190;2022-07-29T02:39:06;6.90;;;3.30;;
57319;SDS011;43158;51.026;18.190;2022-07-29T02:41:55;6.20;;;3.10;;
57319;SDS011;43158;51.026;18.190;2022-07-29T02:44:43;6.10;;;4.10;;
57319;SDS011;43158;51.026;18.190;2022-07-29T02:50:33;9.40;;;3.50;;
57319;SDS011;43158;51.026;18.190;2022-07-29T02:53:23;6.10;;;3.40;;
57319;SDS011;43158;51.026;18.190;2022-07-29T02:56:13;6.00;;;3.30;;
57319;SDS011;43158;51.026;18.190;2022-07-29T02:59:00;8.90;;;3.10;;
57319;SDS011;43158;51.026;18.190;2022-07-29T03:01:47;6.30;;;3.50;;
57319;SDS011;43158;51.026;18.190;2022-07-29T03:04:32;4.10;;;3.00;;
57319;SDS011;43158;51.026;18.190;2022-07-29T03:07:18;3.30;;;2.50;;
57319;SDS011;43158;51.026;18.190;2022-07-29T03:10:03;13.80;;;3.90;;
57319;SDS011;43158;51.026;18.190;2022-07-29T03:12:50;4.50;;;3.10;;
57319;SDS011;43158;51.026;18.190;2022-07-29T03:15:35;4.50;;;3.30;;
57319;SDS011;43158;51.026;18.190;2022-07-29T03:18:21;9.10;;;3.70;;
57319;SDS011;43158;51.026;18.190;2022-07-29T03:21:06;7.30;;;3.90;;
57319;SDS011;43158;51.026;18.190;2022-07-29T03:23:51;7.40;;;3.80;;
57319;SDS011;43158;51.026;18.190;2022-07-29T03:26:36;6.30;;;3.60;;
57319;SDS011;43158;51.026;18.190;2022-07-29T03:29:21;7.90;;;3.50;;
57319;SDS011;43158;51.026;18.190;2022-07-29T03:32:06;9.20;;;4.10;;
57319;SDS011;43158;51.026;18.190;2022-07-29T03:34:51;4.00;;;2.90;;
57319;SDS011;43158;51.026;18.190;2022-07-29T03:37:36;5.50;;;2.60;;
57319;SDS011;43158;51.026;18.190;2022-07-29T03:40:28;4.60;;;3.40;;
57319;SDS011;43158;51.026;18.190;2022-07-29T03:43:15;5.10;;;2.70;;
57319;SDS011;43158;51.026;18.190;2022-07-29T03:46:02;4.60;;;3.50;;
57319;SDS011;43158;51.026;18.190;2022-07-29T03:48:48;4.30;;;3.20;;
57319;SDS011;43158;51.026;18.190;2022-07-29T03:51:37;4.00;;;2.80;;
57319;SDS011;43158;51.026;18.190;2022-07-29T03:54:22;5.10;;;2.50;;
57319;SDS011;43158;51.026;18.190;2022-07-29T03:57:07;5.90;;;2.90;;
57319;SDS011;43158;51.026;18.190;2022-07-29T03:59:55;8.00;;;4.40;;
57319;SDS011;43158;51.026;18.190;2022-07-29T04:02:41;5.30;;;3.60;;
57319;SDS011;43158;51.026;18.190;2022-07-29T04:05:31;7.80;;;3.30;;
57319;SDS011;43158;51.026;18.190;2022-07-29T04:08:16;5.10;;;3.00;;
57319;SDS011;43158;51.026;18.190;2022-07-29T04:11:01;11.30;;;2.70;;
57319;SDS011;43158;51.026;18.190;2022-07-29T04:13:47;5.30;;;3.10;;
57319;SDS011;43158;51.026;18.190;2022-07-29T04:16:32;7.80;;;3.20;;
57319;SDS011;43158;51.026;18.190;2022-07-29T04:19:17;4.70;;;2.40;;
57319;SDS011;43158;51.026;18.190;2022-07-29T04:22:02;6.30;;;2.90;;
57319;SDS011;43158;51.026;18.190;2022-07-29T04:24:47;7.00;;;2.50;;
57319;SDS011;43158;51.026;18.190;2022-07-29T04:27:32;4.60;;;3.20;;
57319;SDS011;43158;51.026;18.190;2022-07-29T04:30:17;6.00;;;2.70;;
57319;SDS011;43158;51.026;18.190;2022-07-29T04:33:04;9.10;;;3.00;;
57319;SDS011;43158;51.026;18.190;2022-07-29T04:35:50;5.80;;;3.00;;
57319;SDS011;43158;51.026;18.190;2022-07-29T04:38:37;3.90;;;2.40;;
57319;SDS011;43158;51.026;18.190;2022-07-29T04:41:23;5.60;;;2.80;;
57319;SDS011;43158;51.026;18.190;2022-07-29T04:44:08;4.80;;;2.90;;
57319;SDS011;43158;51.026;18.190;2022-07-29T04:46:53;7.10;;;2.80;;
57319;SDS011;43158;51.026;18.190;2022-07-29T04:49:38;4.80;;;2.60;;
57319;SDS011;43158;51.026;18.190;2022-07-29T04:52:22;4.80;;;3.20;;
57319;SDS011;43158;51.026;18.190;2022-07-29T04:55:07;7.90;;;3.40;;
57319;SDS011;43158;51.026;18.190;2022-07-29T04:57:53;4.00;;;2.90;;
57319;SDS011;43158;51.026;18.190;2022-07-29T05:00:38;7.50;;;2.40;;
57319;SDS011;43158;51.026;18.190;2022-07-29T05:03:23;4.20;;;3.10;;
57319;SDS011;43158;51.026;18.190;2022-07-29T05:06:08;3.90;;;2.60;;
57319;SDS011;43158;51.026;18.190;2022-07-29T05:08:53;5.50;;;3.10;;
57319;SDS011;43158;51.026;18.190;2022-07-29T05:11:37;5.80;;;3.00;;
57319;SDS011;43158;51.026;18.190;2022-07-29T05:14:22;3.90;;;2.50;;
57319;SDS011;43158;51.026;18.190;2022-07-29T05:17:07;4.60;;;2.60;;
57319;SDS011;43158;51.026;18.190;2022-07-29T05:19:52;7.70;;;3.90;;
57319;SDS011;43158;51.026;18.190;2022-07-29T05:22:37;6.20;;;2.10;;
57319;SDS011;43158;51.026;18.190;2022-07-29T05:25:22;6.00;;;2.20;;
57319;SDS011;43158;51.026;18.190;2022-07-29T05:28:07;3.70;;;2.30;;
57319;SDS011;43158;51.026;18.190;2022-07-29T05:30:52;5.70;;;1.90;;
57319;SDS011;43158;51.026;18.190;2022-07-29T05:33:36;9.20;;;2.40;;
57319;SDS011;43158;51.026;18.190;2022-07-29T05:36:22;8.70;;;2.50;;
57319;SDS011;43158;51.026;18.190;2022-07-29T05:39:07;3.00;;;2.00;;
57319;SDS011;43158;51.026;18.190;2022-07-29T05:41:51;5.60;;;2.30;;
57319;SDS011;43158;51.026;18.190;2022-07-29T05:44:37;6.80;;;1.70;;
57319;SDS011;43158;51.026;18.190;2022-07-29T05:47:23;4.50;;;2.10;;
57319;SDS011;43158;51.026;18.190;2022-07-29T05:50:08;4.40;;;2.20;;
57319;SDS011;43158;51.026;18.190;2022-07-29T05:52:53;4.60;;;2.00;;
57319;SDS011;43158;51.026;18.190;2022-07-29T05:55:38;6.50;;;1.90;;
57319;SDS011;43158;51.026;18.190;2022-07-29T05:58:22;8.40;;;2.00;;
57319;SDS011;43158;51.026;18.190;2022-07-29T06:01:07;2.00;;;1.70;;
57319;SDS011;43158;51.026;18.190;2022-07-29T06:03:51;19.50;;;2.80;;
57319;SDS011;43158;51.026;18.190;2022-07-29T06:06:37;3.80;;;1.40;;
57319;SDS011;43158;51.026;18.190;2022-07-29T06:09:22;12.40;;;2.10;;
57319;SDS011;43158;51.026;18.190;2022-07-29T06:12:06;4.00;;;1.90;;
57319;SDS011;43158;51.026;18.190;2022-07-29T06:14:51;7.80;;;1.90;;
57319;SDS011;43158;51.026;18.190;2022-07-29T06:17:36;3.50;;;1.50;;
57319;SDS011;43158;51.026;18.190;2022-07-29T06:20:21;8.00;;;2.10;;
57319;SDS011;43158;51.026;18.190;2022-07-29T06:23:05;6.70;;;3.10;;
57319;SDS011;43158;51.026;18.190;2022-07-29T06:25:50;9.50;;;1.60;;
57319;SDS011;43158;51.026;18.190;2022-07-29T06:28:35;7.00;;;1.70;;
57319;SDS011;43158;51.026;18.190;2022-07-29T06:31:19;12.10;;;2.20;;
57319;SDS011;43158;51.026;18.190;2022-07-29T06:34:04;3.60;;;1.60;;
57319;SDS011;43158;51.026;18.190;2022-07-29T06:36:49;6.00;;;1.50;;
57319;SDS011;43158;51.026;18.190;2022-07-29T06:39:36;2.30;;;1.50;;
57319;SDS011;43158;51.026;18.190;2022-07-29T06:42:22;7.10;;;1.60;;
57319;SDS011;43158;51.026;18.190;2022-07-29T06:45:09;4.20;;;1.60;;
57319;SDS011;43158;51.026;18.190;2022-07-29T06:47:55;4.30;;;1.70;;
57319;SDS011;43158;51.026;18.190;2022-07-29T06:50:48;3.00;;;1.50;;
57319;SDS011;43158;51.026;18.190;2022-07-29T06:53:43;2.90;;;1.50;;
57319;SDS011;43158;51.026;18.190;2022-07-29T06:56:31;9.80;;;1.70;;
57319;SDS011;43158;51.026;18.190;2022-07-29T06:59:19;11.10;;;2.20;;
57319;SDS011;43158;51.026;18.190;2022-07-29T07:02:07;5.60;;;1.70;;
57319;SDS011;43158;51.026;18.190;2022-07-29T07:04:53;2.40;;;1.40;;
57319;SDS011;43158;51.026;18.190;2022-07-29T07:07:43;12.60;;;1.80;;
57319;SDS011;43158;51.026;18.190;2022-07-29T07:10:32;6.30;;;1.60;;
57319;SDS011;43158;51.026;18.190;2022-07-29T07:13:18;5.60;;;1.90;;
57319;SDS011;43158;51.026;18.190;2022-07-29T07:16:03;3.40;;;1.40;;
57319;SDS011;43158;51.026;18.190;2022-07-29T07:18:49;12.60;;;1.70;;
57319;SDS011;43158;51.026;18.190;2022-07-29T07:21:35;7.20;;;1.30;;
57319;SDS011;43158;51.026;18.190;2022-07-29T07:24:24;2.60;;;1.50;;
57319;SDS011;43158;51.026;18.190;2022-07-29T07:27:09;2.20;;;1.50;;
57319;SDS011;43158;51.026;18.190;2022-07-29T07:29:54;2.10;;;1.30;;
57319;SDS011;43158;51.026;18.190;2022-07-29T07:32:39;4.20;;;1.50;;
57319;SDS011;43158;51.026;18.190;2022-07-29T07:35:24;6.40;;;1.50;;
57319;SDS011;43158;51.026;18.190;2022-07-29T07:38:08;3.60;;;1.30;;
57319;SDS011;43158;51.026;18.190;2022-07-29T07:40:53;5.50;;;1.30;;
57319;SDS011;43158;51.026;18.190;2022-07-29T07:43:38;2.10;;;1.30;;
57319;SDS011;43158;51.026;18.190;2022-07-29T07:46:22;1.90;;;1.30;;
57319;SDS011;43158;51.026;18.190;2022-07-29T07:49:07;3.80;;;1.70;;
57319;SDS011;43158;51.026;18.190;2022-07-29T07:51:52;3.80;;;1.30;;
57319;SDS011;43158;51.026;18.190;2022-07-29T07:54:37;2.20;;;1.30;;
57319;SDS011;43158;51.026;18.190;2022-07-29T07:57:21;8.60;;;1.30;;
57319;SDS011;43158;51.026;18.190;2022-07-29T08:00:07;4.20;;;1.40;;
57319;SDS011;43158;51.026;18.190;2022-07-29T08:02:52;1.80;;;1.30;;
57319;SDS011;43158;51.026;18.190;2022-07-29T08:05:37;5.50;;;1.50;;
57319;SDS011;43158;51.026;18.190;2022-07-29T08:08:22;4.50;;;1.30;;
57319;SDS011;43158;51.026;18.190;2022-07-29T08:11:08;2.80;;;1.60;;
57319;SDS011;43158;51.026;18.190;2022-07-29T08:13:53;5.70;;;1.70;;
57319;SDS011;43158;51.026;18.190;2022-07-29T08:16:38;2.40;;;1.40;;
57319;SDS011;43158;51.026;18.190;2022-07-29T08:19:24;6.10;;;1.60;;
57319;SDS011;43158;51.026;18.190;2022-07-29T08:22:14;3.80;;;1.10;;
57319;SDS011;43158;51.026;18.190;2022-07-29T08:25:00;3.40;;;1.30;;
57319;SDS011;43158;51.026;18.190;2022-07-29T08:27:45;2.50;;;1.50;;
57319;SDS011;43158;51.026;18.190;2022-07-29T08:30:31;1.50;;;1.20;;
57319;SDS011;43158;51.026;18.190;2022-07-29T08:33:16;3.70;;;1.30;;
57319;SDS011;43158;51.026;18.190;2022-07-29T08:36:02;4.10;;;1.40;;
57319;SDS011;43158;51.026;18.190;2022-07-29T08:38:47;6.70;;;1.50;;
57319;SDS011;43158;51.026;18.190;2022-07-29T08:41:33;2.40;;;1.20;;
57319;SDS011;43158;51.026;18.190;2022-07-29T08:44:18;5.60;;;1.60;;
57319;SDS011;43158;51.026;18.190;2022-07-29T08:47:03;3.40;;;1.50;;
57319;SDS011;43158;51.026;18.190;2022-07-29T08:49:48;3.80;;;1.30;;
57319;SDS011;43158;51.026;18.190;2022-07-29T08:52:38;4.00;;;1.30;;
57319;SDS011;43158;51.026;18.190;2022-07-29T08:55:23;6.10;;;1.40;;
57319;SDS011;43158;51.026;18.190;2022-07-29T08:58:09;2.30;;;1.30;;
57319;SDS011;43158;51.026;18.190;2022-07-29T09:00:54;6.60;;;1.40;;
57319;SDS011;43158;51.026;18.190;2022-07-29T09:03:40;3.40;;;1.40;;
57319;SDS011;43158;51.026;18.190;2022-07-29T09:06:26;5.10;;;1.50;;
57319;SDS011;43158;51.026;18.190;2022-07-29T09:09:20;6.70;;;1.50;;
57319;SDS011;43158;51.026;18.190;2022-07-29T09:12:06;2.70;;;1.40;;
57319;SDS011;43158;51.026;18.190;2022-07-29T09:14:52;3.60;;;1.30;;
57319;SDS011;43158;51.026;18.190;2022-07-29T09:17:47;5.50;;;1.60;;
57319;SDS011;43158;51.026;18.190;2022-07-29T09:20:33;1.30;;;1.10;;
57319;SDS011;43158;51.026;18.190;2022-07-29T09:23:36;3.40;;;1.70;;
57319;SDS011;43158;51.026;18.190;2022-07-29T09:26:21;2.60;;;1.30;;
57319;SDS011;43158;51.026;18.190;2022-07-29T09:29:17;4.00;;;1.20;;
57319;SDS011;43158;51.026;18.190;2022-07-29T09:32:05;3.80;;;1.20;;
57319;SDS011;43158;51.026;18.190;2022-07-29T09:38:12;2.90;;;1.60;;
57319;SDS011;43158;51.026;18.190;2022-07-29T09:40:57;4.10;;;1.20;;
57319;SDS011;43158;51.026;18.190;2022-07-29T09:43:53;4.60;;;1.50;;
57319;SDS011;43158;51.026;18.190;2022-07-29T09:49:58;2.10;;;1.20;;
57319;SDS011;43158;51.026;18.190;2022-07-29T09:52:47;6.40;;;1.80;;
57319;SDS011;43158;51.026;18.190;2022-07-29T09:55:40;3.70;;;1.50;;
57319;SDS011;43158;51.026;18.190;2022-07-29T09:58:33;3.30;;;1.50;;
57319;SDS011;43158;51.026;18.190;2022-07-29T10:01:26;6.30;;;1.50;;
57319;SDS011;43158;51.026;18.190;2022-07-29T10:04:12;4.70;;;1.70;;
57319;SDS011;43158;51.026;18.190;2022-07-29T10:07:00;5.40;;;1.70;;
57319;SDS011;43158;51.026;18.190;2022-07-29T10:09:52;4.30;;;1.30;;
57319;SDS011;43158;51.026;18.190;2022-07-29T10:12:48;3.00;;;1.40;;
57319;SDS011;43158;51.026;18.190;2022-07-29T10:15:44;5.10;;;1.80;;
57319;SDS011;43158;51.026;18.190;2022-07-29T10:18:29;5.70;;;1.70;;
57319;SDS011;43158;51.026;18.190;2022-07-29T10:21:14;1.80;;;1.60;;
57319;SDS011;43158;51.026;18.190;2022-07-29T10:23:59;2.60;;;1.50;;
57319;SDS011;43158;51.026;18.190;2022-07-29T10:26:44;4.30;;;1.60;;
57319;SDS011;43158;51.026;18.190;2022-07-29T10:29:30;3.00;;;1.50;;
57319;SDS011;43158;51.026;18.190;2022-07-29T10:32:19;6.50;;;1.80;;
57319;SDS011;43158;51.026;18.190;2022-07-29T10:44:20;4.40;;;1.40;;
57319;SDS011;43158;51.026;18.190;2022-07-29T10:47:08;4.40;;;1.90;;
57319;SDS011;43158;51.026;18.190;2022-07-29T10:50:18;7.20;;;2.00;;
57319;SDS011;43158;51.026;18.190;2022-07-29T10:53:09;2.80;;;1.50;;
57319;SDS011;43158;51.026;18.190;2022-07-29T10:55:53;8.00;;;1.70;;
57319;SDS011;43158;51.026;18.190;2022-07-29T10:58:38;4.10;;;2.20;;
57319;SDS011;43158;51.026;18.190;2022-07-29T11:01:29;3.90;;;1.70;;
57319;SDS011;43158;51.026;18.190;2022-07-29T11:04:16;4.60;;;1.60;;
57319;SDS011;43158;51.026;18.190;2022-07-29T11:12:57;2.70;;;1.70;;
57319;SDS011;43158;51.026;18.190;2022-07-29T11:16:03;4.00;;;1.80;;
57319;SDS011;43158;51.026;18.190;2022-07-29T11:22:31;3.90;;;1.60;;
57319;SDS011;43158;51.026;18.190;2022-07-29T11:25:20;3.30;;;1.70;;
57319;SDS011;43158;51.026;18.190;2022-07-29T11:28:13;5.10;;;1.80;;
57319;SDS011;43158;51.026;18.190;2022-07-29T11:31:01;4.10;;;1.80;;
57319;SDS011;43158;51.026;18.190;2022-07-29T11:33:47;5.00;;;1.70;;
57319;SDS011;43158;51.026;18.190;2022-07-29T11:36:31;2.90;;;1.70;;
57319;SDS011;43158;51.026;18.190;2022-07-29T11:39:26;5.90;;;2.10;;
57319;SDS011;43158;51.026;18.190;2022-07-29T11:47:55;5.20;;;1.70;;
57319;SDS011;43158;51.026;18.190;2022-07-29T11:50:43;4.40;;;2.10;;
57319;SDS011;43158;51.026;18.190;2022-07-29T11:53:29;2.00;;;1.70;;
57319;SDS011;43158;51.026;18.190;2022-07-29T11:56:13;4.80;;;2.00;;
57319;SDS011;43158;51.026;18.190;2022-07-29T11:59:05;5.40;;;1.80;;
57319;SDS011;43158;51.026;18.190;2022-07-29T12:01:54;5.30;;;1.80;;
57319;SDS011;43158;51.026;18.190;2022-07-29T12:04:49;5.10;;;1.90;;
57319;SDS011;43158;51.026;18.190;2022-07-29T12:07:37;5.20;;;1.90;;
57319;SDS011;43158;51.026;18.190;2022-07-29T12:10:24;3.70;;;2.10;;
57319;SDS011;43158;51.026;18.190;2022-07-29T12:13:38;4.70;;;1.70;;
57319;SDS011;43158;51.026;18.190;2022-07-29T12:16:33;5.40;;;1.90;;
57319;SDS011;43158;51.026;18.190;2022-07-29T12:19:21;4.70;;;2.20;;
57319;SDS011;43158;51.026;18.190;2022-07-29T12:22:06;4.20;;;1.90;;
57319;SDS011;43158;51.026;18.190;2022-07-29T12:24:52;2.20;;;2.00;;
57319;SDS011;43158;51.026;18.190;2022-07-29T12:27:38;2.70;;;1.80;;
57319;SDS011;43158;51.026;18.190;2022-07-29T12:30:33;5.20;;;2.30;;
57319;SDS011;43158;51.026;18.190;2022-07-29T12:33:26;6.30;;;2.10;;
57319;SDS011;43158;51.026;18.190;2022-07-29T12:36:21;4.10;;;2.20;;
57319;SDS011;43158;51.026;18.190;2022-07-29T12:39:06;6.40;;;2.00;;
57319;SDS011;43158;51.026;18.190;2022-07-29T12:41:53;5.70;;;1.90;;
57319;SDS011;43158;51.026;18.190;2022-07-29T12:44:48;1.90;;;1.80;;
57319;SDS011;43158;51.026;18.190;2022-07-29T12:47:50;6.40;;;2.40;;
57319;SDS011;43158;51.026;18.190;2022-07-29T12:50:36;9.40;;;2.40;;
57319;SDS011;43158;51.026;18.190;2022-07-29T12:53:36;8.20;;;2.60;;
57319;SDS011;43158;51.026;18.190;2022-07-29T12:56:21;6.20;;;2.50;;
57319;SDS011;43158;51.026;18.190;2022-07-29T12:59:16;6.30;;;2.40;;
57319;SDS011;43158;51.026;18.190;2022-07-29T13:02:02;5.50;;;1.90;;
57319;SDS011;43158;51.026;18.190;2022-07-29T13:04:54;5.30;;;2.60;;
57319;SDS011;43158;51.026;18.190;2022-07-29T13:07:43;8.80;;;2.40;;
57319;SDS011;43158;51.026;18.190;2022-07-29T13:10:28;3.90;;;1.90;;
57319;SDS011;43158;51.026;18.190;2022-07-29T13:13:14;4.40;;;2.30;;
57319;SDS011;43158;51.026;18.190;2022-07-29T13:16:05;3.80;;;2.10;;
57319;SDS011;43158;51.026;18.190;2022-07-29T13:19:10;5.70;;;2.10;;
57319;SDS011;43158;51.026;18.190;2022-07-29T13:21:56;4.90;;;2.30;;
57319;SDS011;43158;51.026;18.190;2022-07-29T13:24:48;11.20;;;2.50;;
57319;SDS011;43158;51.026;18.190;2022-07-29T13:27:35;4.20;;;2.30;;
57319;SDS011;43158;51.026;18.190;2022-07-29T13:30:22;2.30;;;2.10;;
57319;SDS011;43158;51.026;18.190;2022-07-29T13:33:06;4.20;;;1.70;;
57319;SDS011;43158;51.026;18.190;2022-07-29T13:35:57;3.70;;;2.30;;
57319;SDS011;43158;51.026;18.190;2022-07-29T13:38:42;6.20;;;2.20;;
57319;SDS011;43158;51.026;18.190;2022-07-29T13:41:26;4.20;;;2.10;;
57319;SDS011;43158;51.026;18.190;2022-07-29T13:44:12;4.70;;;2.20;;
57319;SDS011;43158;51.026;18.190;2022-07-29T13:47:04;3.50;;;2.30;;
57319;SDS011;43158;51.026;18.190;2022-07-29T13:49:49;4.80;;;2.60;;
57319;SDS011;43158;51.026;18.190;2022-07-29T13:52:34;3.50;;;3.20;;
57319;SDS011;43158;51.026;18.190;2022-07-29T13:55:19;3.40;;;2.60;;
57319;SDS011;43158;51.026;18.190;2022-07-29T13:58:05;6.70;;;2.80;;
57319;SDS011;43158;51.026;18.190;2022-07-29T14:00:51;8.10;;;2.50;;
57319;SDS011;43158;51.026;18.190;2022-07-29T14:03:49;6.30;;;2.90;;
57319;SDS011;43158;51.026;18.190;2022-07-29T14:06:39;4.50;;;2.50;;
57319;SDS011;43158;51.026;18.190;2022-07-29T14:09:24;5.70;;;2.40;;
57319;SDS011;43158;51.026;18.190;2022-07-29T14:12:08;9.20;;;3.10;;
57319;SDS011;43158;51.026;18.190;2022-07-29T14:14:53;5.30;;;2.40;;
57319;SDS011;43158;51.026;18.190;2022-07-29T14:17:37;7.00;;;3.30;;
57319;SDS011;43158;51.026;18.190;2022-07-29T14:20:22;3.00;;;2.30;;
57319;SDS011;43158;51.026;18.190;2022-07-29T14:23:07;6.60;;;2.60;;
57319;SDS011;43158;51.026;18.190;2022-07-29T14:25:51;2.80;;;2.40;;
57319;SDS011;43158;51.026;18.190;2022-07-29T14:28:36;6.30;;;2.60;;
57319;SDS011;43158;51.026;18.190;2022-07-29T14:31:21;4.70;;;2.50;;
57319;SDS011;43158;51.026;18.190;2022-07-29T14:34:05;4.80;;;2.30;;
57319;SDS011;43158;51.026;18.190;2022-07-29T14:36:53;4.50;;;2.20;;
57319;SDS011;43158;51.026;18.190;2022-07-29T14:39:39;3.90;;;2.40;;
57319;SDS011;43158;51.026;18.190;2022-07-29T14:42:24;3.30;;;2.10;;
57319;SDS011;43158;51.026;18.190;2022-07-29T14:45:09;4.40;;;2.30;;
57319;SDS011;43158;51.026;18.190;2022-07-29T14:47:54;4.60;;;2.40;;
57319;SDS011;43158;51.026;18.190;2022-07-29T14:50:39;3.40;;;2.30;;
57319;SDS011;43158;51.026;18.190;2022-07-29T14:53:24;3.10;;;2.20;;
57319;SDS011;43158;51.026;18.190;2022-07-29T14:56:08;6.50;;;2.30;;
57319;SDS011;43158;51.026;18.190;2022-07-29T14:58:53;8.40;;;2.60;;
57319;SDS011;43158;51.026;18.190;2022-07-29T15:01:37;3.60;;;2.40;;
57319;SDS011;43158;51.026;18.190;2022-07-29T15:04:22;5.20;;;2.40;;
57319;SDS011;43158;51.026;18.190;2022-07-29T15:07:07;5.50;;;2.70;;
57319;SDS011;43158;51.026;18.190;2022-07-29T15:09:52;3.90;;;2.70;;
57319;SDS011;43158;51.026;18.190;2022-07-29T15:12:38;8.00;;;3.30;;
57319;SDS011;43158;51.026;18.190;2022-07-29T15:15:27;8.90;;;2.50;;
57319;SDS011;43158;51.026;18.190;2022-07-29T15:18:12;9.10;;;2.90;;
57319;SDS011;43158;51.026;18.190;2022-07-29T15:21:08;6.40;;;2.50;;
57319;SDS011;43158;51.026;18.190;2022-07-29T15:23:53;3.60;;;2.30;;
57319;SDS011;43158;51.026;18.190;2022-07-29T15:26:39;3.10;;;2.50;;
57319;SDS011;43158;51.026;18.190;2022-07-29T15:29:23;5.50;;;2.40;;
57319;SDS011;43158;51.026;18.190;2022-07-29T15:32:09;4.60;;;3.00;;
57319;SDS011;43158;51.026;18.190;2022-07-29T15:34:58;9.50;;;2.60;;
57319;SDS011;43158;51.026;18.190;2022-07-29T15:37:43;5.00;;;2.80;;
57319;SDS011;43158;51.026;18.190;2022-07-29T15:40:29;10.20;;;2.90;;
57319;SDS011;43158;51.026;18.190;2022-07-29T15:43:14;7.20;;;2.80;;
57319;SDS011;43158;51.026;18.190;2022-07-29T15:45:59;5.80;;;2.80;;
57319;SDS011;43158;51.026;18.190;2022-07-29T15:49:03;4.70;;;2.90;;
57319;SDS011;43158;51.026;18.190;2022-07-29T15:51:52;5.40;;;2.80;;
57319;SDS011;43158;51.026;18.190;2022-07-29T15:54:42;3.30;;;3.00;;
57319;SDS011;43158;51.026;18.190;2022-07-29T15:57:31;4.30;;;2.90;;
57319;SDS011;43158;51.026;18.190;2022-07-29T16:00:17;4.80;;;3.10;;
57319;SDS011;43158;51.026;18.190;2022-07-29T16:03:02;5.00;;;3.40;;
57319;SDS011;43158;51.026;18.190;2022-07-29T16:05:47;6.10;;;3.40;;
57319;SDS011;43158;51.026;18.190;2022-07-29T16:08:32;5.60;;;3.10;;
57319;SDS011;43158;51.026;18.190;2022-07-29T16:11:17;3.20;;;2.90;;
57319;SDS011;43158;51.026;18.190;2022-07-29T16:14:02;4.70;;;2.90;;
57319;SDS011;43158;51.026;18.190;2022-07-29T16:16:52;5.10;;;3.00;;
57319;SDS011;43158;51.026;18.190;2022-07-29T16:19:37;6.30;;;3.60;;
57319;SDS011;43158;51.026;18.190;2022-07-29T16:22:22;3.60;;;3.00;;
57319;SDS011;43158;51.026;18.190;2022-07-29T16:25:08;10.90;;;3.80;;
57319;SDS011;43158;51.026;18.190;2022-07-29T16:28:00;4.80;;;3.40;;
57319;SDS011;43158;51.026;18.190;2022-07-29T16:30:58;6.70;;;2.80;;
57319;SDS011;43158;51.026;18.190;2022-07-29T16:33:55;4.10;;;3.10;;
57319;SDS011;43158;51.026;18.190;2022-07-29T16:37:02;5.40;;;3.50;;
57319;SDS011;43158;51.026;18.190;2022-07-29T16:39:46;9.00;;;5.40;;
57319;SDS011;43158;51.026;18.190;2022-07-29T16:42:31;7.40;;;4.70;;
57319;SDS011;43158;51.026;18.190;2022-07-29T16:45:19;7.10;;;3.50;;
57319;SDS011;43158;51.026;18.190;2022-07-29T16:48:13;3.80;;;3.40;;
57319;SDS011;43158;51.026;18.190;2022-07-29T16:51:05;6.30;;;3.80;;
57319;SDS011;43158;51.026;18.190;2022-07-29T16:54:03;10.40;;;4.80;;
57319;SDS011;43158;51.026;18.190;2022-07-29T16:56:54;10.90;;;6.00;;
57319;SDS011;43158;51.026;18.190;2022-07-29T16:59:44;4.30;;;3.20;;
57319;SDS011;43158;51.026;18.190;2022-07-29T17:02:53;4.50;;;3.40;;
57319;SDS011;43158;51.026;18.190;2022-07-29T17:05:48;5.10;;;3.10;;
57319;SDS011;43158;51.026;18.190;2022-07-29T17:08:33;5.30;;;3.10;;
57319;SDS011;43158;51.026;18.190;2022-07-29T17:11:27;4.10;;;3.20;;
57319;SDS011;43158;51.026;18.190;2022-07-29T17:14:12;8.40;;;3.10;;
57319;SDS011;43158;51.026;18.190;2022-07-29T17:16:58;5.80;;;3.30;;